createdAt,value
2018-07-14T00:00:15.322Z,19.80
2018-07-14T00:04:09.368Z,19.80
2018-07-14T00:08:03.300Z,19.70
2018-07-14T00:11:57.328Z,19.60
2018-07-14T00:15:51.295Z,19.60
2018-07-14T00:23:38.978Z,19.40
2018-07-14T00:27:32.960Z,19.30
2018-07-14T00:31:26.931Z,19.30
2018-07-14T00:35:21.061Z,19.30
2018-07-14T00:39:15.140Z,19.20
2018-07-14T00:43:09.220Z,19.20
2018-07-14T00:47:03.276Z,19.10
2018-07-14T00:50:57.300Z,19.00
2018-07-14T00:54:50.773Z,19.00
2018-07-14T00:58:44.726Z,19.00
2018-07-14T01:02:38.683Z,18.90
2018-07-14T01:06:32.718Z,18.90
2018-07-14T01:10:26.662Z,18.80
2018-07-14T01:14:20.635Z,18.70
2018-07-14T01:18:14.595Z,18.70
2018-07-14T01:22:08.625Z,18.70
2018-07-14T01:26:02.823Z,18.50
2018-07-14T01:29:56.804Z,18.50
2018-07-14T01:33:50.722Z,18.40
2018-07-14T01:37:44.869Z,18.30
2018-07-14T01:41:38.812Z,18.40
2018-07-14T01:45:32.811Z,18.30
2018-07-14T01:49:26.746Z,18.20
2018-07-14T01:53:20.632Z,18.10
2018-07-14T01:57:14.637Z,18.20
2018-07-14T02:01:08.248Z,18.10
2018-07-14T02:05:02.258Z,18.00
2018-07-14T02:08:58.221Z,17.90
2018-07-14T02:16:45.839Z,17.90
2018-07-14T02:20:39.826Z,17.90
2018-07-14T02:24:33.723Z,17.90
2018-07-14T02:28:27.664Z,17.80
2018-07-14T02:32:21.810Z,17.70
2018-07-14T02:36:15.815Z,17.60
2018-07-14T02:40:09.683Z,17.60
2018-07-14T02:44:04.424Z,17.60
2018-07-14T02:47:58.381Z,17.60
2018-07-14T02:51:52.356Z,17.70
2018-07-14T02:55:45.814Z,17.70
2018-07-14T02:59:39.870Z,17.70
2018-07-14T03:03:33.866Z,17.60
2018-07-14T03:07:27.795Z,17.50
2018-07-14T03:11:21.752Z,17.40
2018-07-14T03:15:15.717Z,17.50
2018-07-14T03:19:09.691Z,17.50
2018-07-14T03:23:03.692Z,17.40
2018-07-14T03:26:57.638Z,17.40
2018-07-14T03:30:51.546Z,17.40
2018-07-14T03:34:45.611Z,17.20
2018-07-14T03:38:39.508Z,17.20
2018-07-14T03:42:33.491Z,17.20
2018-07-14T03:46:27.435Z,17.20
2018-07-14T03:50:21.412Z,17.20
2018-07-14T03:54:15.374Z,17.20
2018-07-14T03:58:09.078Z,17.10
2018-07-14T04:02:03.099Z,17.10
2018-07-14T04:05:57.995Z,17.10
2018-07-14T04:09:52.133Z,17.10
2018-07-14T04:13:46.096Z,17.10
2018-07-14T04:17:40.011Z,17.10
2018-07-14T04:21:33.958Z,17.10
2018-07-14T04:25:27.926Z,17.10
2018-07-14T04:33:15.543Z,17.30
2018-07-14T04:37:09.513Z,17.30
2018-07-14T04:41:03.595Z,17.40
2018-07-14T04:44:57.511Z,17.50
2018-07-14T04:48:51.529Z,17.60
2018-07-14T04:52:45.487Z,17.60
2018-07-14T04:56:39.533Z,17.70
2018-07-14T05:00:33.584Z,17.70
2018-07-14T05:04:27.051Z,17.90
2018-07-14T05:08:21.023Z,18.10
2018-07-14T05:12:14.972Z,18.60
2018-07-14T05:16:08.965Z,18.90
2018-07-14T05:20:03.209Z,18.70
2018-07-14T05:23:57.232Z,18.50
2018-07-14T05:27:51.232Z,18.40
2018-07-14T05:31:45.129Z,18.50
2018-07-14T05:35:39.077Z,18.60
2018-07-14T05:39:33.003Z,18.80
2018-07-14T05:43:27.064Z,18.90
2018-07-14T05:47:21.261Z,18.90
2018-07-14T05:51:16.641Z,19.00
2018-07-14T05:55:10.149Z,19.00
2018-07-14T05:59:04.239Z,19.00
2018-07-14T06:02:58.216Z,19.10
2018-07-14T06:06:52.236Z,19.20
2018-07-14T06:10:46.203Z,19.20
2018-07-14T06:14:40.150Z,19.40
2018-07-14T06:18:34.210Z,19.40
2018-07-14T06:22:30.652Z,19.50
2018-07-14T06:26:30.071Z,19.50
2018-07-14T06:30:24.098Z,19.50
2018-07-14T06:34:18.133Z,19.60
2018-07-14T06:38:12.086Z,19.70
2018-07-14T06:42:06.231Z,19.70
2018-07-14T06:46:00.266Z,19.70
2018-07-14T06:49:54.415Z,19.70
2018-07-14T06:53:48.845Z,19.80
2018-07-14T06:57:42.356Z,19.90
2018-07-14T07:01:36.502Z,20.00
2018-07-14T07:05:31.185Z,20.00
2018-07-14T07:09:26.598Z,20.10
2018-07-14T07:13:21.750Z,20.30
2018-07-14T07:17:15.974Z,20.50
2018-07-14T07:21:09.952Z,20.60
2018-07-14T07:25:05.129Z,20.60
2018-07-14T07:28:59.041Z,20.60
2018-07-14T07:32:53.135Z,20.90
2018-07-14T07:36:47.395Z,20.90
2018-07-14T07:40:41.400Z,20.80
2018-07-14T07:44:36.494Z,20.90
2018-07-14T07:48:30.501Z,20.90
2018-07-14T07:52:24.498Z,21.10
2018-07-14T07:56:18.675Z,21.20
2018-07-14T08:00:12.771Z,21.30
2018-07-14T08:04:06.235Z,21.30
2018-07-14T08:08:00.199Z,21.20
2018-07-14T08:11:54.471Z,21.30
2018-07-14T08:15:48.406Z,21.50
2018-07-14T08:19:42.477Z,21.50
2018-07-14T08:23:36.636Z,21.60
2018-07-14T08:27:30.755Z,21.70
2018-07-14T08:31:25.206Z,21.60
2018-07-14T08:35:19.223Z,21.70
2018-07-14T08:39:13.151Z,21.90
2018-07-14T08:43:07.119Z,21.90
2018-07-14T08:47:01.379Z,21.90
2018-07-14T08:50:55.466Z,21.80
2018-07-14T08:54:49.565Z,21.90
2018-07-14T08:58:42.961Z,21.80
2018-07-14T09:02:37.161Z,21.90
2018-07-14T09:06:31.128Z,22.10
2018-07-14T09:10:25.231Z,22.30
2018-07-14T09:14:19.263Z,22.40
2018-07-14T09:18:13.308Z,22.60
2018-07-14T09:22:07.411Z,22.70
2018-07-14T09:26:01.593Z,22.60
2018-07-14T09:29:55.821Z,22.50
2018-07-14T09:33:50.092Z,22.60
2018-07-14T09:37:44.739Z,22.70
2018-07-14T09:41:38.787Z,22.80
2018-07-14T09:45:32.889Z,23.00
2018-07-14T09:49:27.256Z,23.10
2018-07-14T09:53:21.249Z,23.20
2018-07-14T09:57:15.419Z,23.10
2018-07-14T10:01:10.836Z,23.20
2018-07-14T10:05:04.328Z,23.30
2018-07-14T10:08:58.993Z,23.30
2018-07-14T10:12:53.117Z,23.50
2018-07-14T10:16:47.106Z,23.50
2018-07-14T10:20:39.968Z,23.60
2018-07-14T10:24:34.155Z,23.70
2018-07-14T10:28:28.094Z,23.80
2018-07-14T10:32:22.138Z,23.90
2018-07-14T10:36:16.629Z,23.80
2018-07-14T10:40:11.148Z,23.80
2018-07-14T10:44:05.216Z,23.80
2018-07-14T10:47:59.468Z,23.70
2018-07-14T10:51:53.497Z,23.90
2018-07-14T10:55:47.810Z,24.20
2018-07-14T10:59:41.323Z,24.50
2018-07-14T11:03:35.467Z,24.70
2018-07-14T11:07:30.028Z,24.90
2018-07-14T11:11:24.112Z,24.90
2018-07-14T11:15:18.300Z,24.90
2018-07-14T11:23:06.122Z,25.20
2018-07-14T11:27:00.132Z,24.90
2018-07-14T11:30:54.173Z,24.80
2018-07-14T11:34:48.523Z,25.20
2018-07-14T11:38:44.059Z,25.30
2018-07-14T11:42:38.076Z,25.50
2018-07-14T11:46:32.032Z,25.60
2018-07-14T11:50:26.352Z,25.80
2018-07-14T11:54:20.859Z,25.70
2018-07-14T11:58:14.479Z,25.70
2018-07-14T12:02:08.760Z,25.50
2018-07-14T12:09:58.087Z,26.00
2018-07-14T12:13:53.492Z,26.20
2018-07-14T12:17:48.095Z,25.90
2018-07-14T12:21:42.146Z,25.90
2018-07-14T12:25:36.577Z,26.00
2018-07-14T12:29:31.426Z,26.20
2018-07-14T12:33:26.013Z,26.30
2018-07-14T12:37:20.039Z,26.40
2018-07-14T12:41:14.299Z,26.40
2018-07-14T12:45:08.915Z,26.10
2018-07-14T12:49:03.194Z,25.80
2018-07-14T12:52:57.515Z,25.70
2018-07-14T12:56:51.777Z,25.70
2018-07-14T13:00:46.511Z,25.70
2018-07-14T13:04:44.220Z,25.50
2018-07-14T13:08:38.416Z,25.50
2018-07-14T13:12:32.641Z,25.70
2018-07-14T13:16:26.688Z,25.70
2018-07-14T13:20:20.714Z,25.90
2018-07-14T13:24:14.752Z,25.90
2018-07-14T13:28:12.313Z,25.90
2018-07-14T13:32:06.450Z,25.90
2018-07-14T13:36:00.507Z,25.90
2018-07-14T13:39:54.537Z,26.00
2018-07-14T13:43:48.550Z,26.10
2018-07-14T13:47:43.172Z,26.10
2018-07-14T13:51:37.256Z,26.20
2018-07-14T13:55:30.235Z,26.30
2018-07-14T13:59:23.724Z,26.40
2018-07-14T14:03:17.816Z,26.20
2018-07-14T14:07:11.806Z,26.20
2018-07-14T14:14:59.597Z,26.50
2018-07-14T14:22:47.187Z,27.20
2018-07-14T14:26:41.248Z,27.30
2018-07-14T14:30:36.223Z,27.20
2018-07-14T14:34:30.328Z,27.10
2018-07-14T14:38:24.406Z,27.20
2018-07-14T14:42:18.537Z,27.10
2018-07-14T14:46:14.579Z,27.00
2018-07-14T14:50:09.972Z,26.80
2018-07-14T14:54:04.267Z,26.80
2018-07-14T14:57:57.814Z,26.90
2018-07-14T15:01:51.973Z,26.80
2018-07-14T15:05:46.208Z,26.80
2018-07-14T15:09:40.280Z,26.80
2018-07-14T15:13:34.764Z,26.60
2018-07-14T15:17:29.114Z,26.60
2018-07-14T15:21:23.629Z,26.70
2018-07-14T15:25:19.220Z,27.00
2018-07-14T15:29:13.647Z,27.20
2018-07-14T15:33:08.119Z,27.10
2018-07-14T15:37:02.279Z,27.00
2018-07-14T15:40:56.748Z,27.10
2018-07-14T15:44:50.892Z,27.10
2018-07-14T15:48:45.153Z,27.10
2018-07-14T15:53:08.474Z,26.90
2018-07-14T15:57:04.816Z,26.80
2018-07-14T16:00:59.054Z,26.80
2018-07-14T16:04:53.290Z,26.80
2018-07-14T16:08:47.433Z,26.80
2018-07-14T16:12:43.512Z,26.90
2018-07-14T16:16:40.086Z,26.80
2018-07-14T16:20:34.949Z,26.70
2018-07-14T16:24:29.026Z,26.80
2018-07-14T16:28:23.260Z,26.60
2018-07-14T16:32:17.334Z,26.60
2018-07-14T16:36:11.333Z,26.80
2018-07-14T16:40:05.524Z,26.80
2018-07-14T16:43:59.642Z,26.60
2018-07-14T16:47:53.791Z,26.40
2018-07-14T16:51:48.397Z,26.40
2018-07-14T16:55:43.034Z,26.30
2018-07-14T16:59:36.479Z,26.30
2018-07-14T17:03:30.491Z,26.30
2018-07-14T17:07:24.824Z,26.30
2018-07-14T17:11:19.216Z,26.30
2018-07-14T17:15:17.058Z,26.30
2018-07-14T17:19:12.471Z,26.20
2018-07-14T17:23:06.823Z,26.20
2018-07-14T17:27:01.658Z,26.10
2018-07-14T17:30:55.734Z,26.20
2018-07-14T17:34:50.123Z,26.10
2018-07-14T17:38:44.205Z,26.00
2018-07-14T17:42:38.502Z,26.00
2018-07-14T17:46:32.589Z,26.10
2018-07-14T17:50:26.748Z,25.90
2018-07-14T17:54:20.899Z,25.80
2018-07-14T17:58:14.377Z,25.60
2018-07-14T18:02:08.760Z,25.60
2018-07-14T18:06:03.893Z,25.50
2018-07-14T18:09:58.290Z,25.50
2018-07-14T18:17:46.381Z,25.30
2018-07-14T18:21:40.459Z,25.20
2018-07-14T18:25:35.787Z,25.10
2018-07-14T18:29:30.099Z,25.00
2018-07-14T18:33:28.141Z,24.90
2018-07-14T18:37:22.634Z,24.90
2018-07-14T18:41:18.707Z,24.80
2018-07-14T18:45:12.689Z,24.70
2018-07-14T18:49:06.861Z,24.60
2018-07-14T18:53:00.955Z,24.60
2018-07-14T18:56:55.322Z,24.50
2018-07-14T19:00:48.726Z,24.40
2018-07-14T19:04:42.734Z,24.30
2018-07-14T19:08:36.721Z,24.20
2018-07-14T19:12:30.889Z,24.10
2018-07-14T19:20:18.612Z,23.90
2018-07-14T19:24:12.559Z,23.80
2018-07-14T19:28:06.598Z,23.70
2018-07-14T19:32:00.741Z,23.70
2018-07-14T19:35:54.729Z,23.60
2018-07-14T19:39:48.734Z,23.50
2018-07-14T19:43:42.765Z,23.40
2018-07-14T19:47:36.758Z,23.30
2018-07-14T19:51:30.779Z,23.10
2018-07-14T19:55:24.683Z,23.10
2018-07-14T19:59:18.668Z,23.00
2018-07-14T20:03:12.783Z,22.90
2018-07-14T20:07:06.849Z,22.80
2018-07-14T20:11:00.265Z,22.70
2018-07-14T20:14:54.198Z,22.60
2018-07-14T20:18:48.135Z,22.50
2018-07-14T20:22:42.147Z,22.40
2018-07-14T20:26:36.083Z,22.30
2018-07-14T20:30:30.025Z,22.20
2018-07-14T20:34:24.022Z,22.10
2018-07-14T20:38:17.988Z,21.90
2018-07-14T20:42:12.150Z,21.80
2018-07-14T20:46:06.243Z,21.80
2018-07-14T20:50:00.236Z,21.80
2018-07-14T20:53:55.064Z,21.70
2018-07-14T20:57:48.894Z,21.60
2018-07-14T21:01:41.657Z,21.50
2018-07-14T21:05:35.547Z,21.50
2018-07-14T21:09:29.583Z,21.50
2018-07-14T21:13:23.527Z,21.50
2018-07-14T21:17:17.582Z,21.30
2018-07-14T21:21:11.611Z,21.30
2018-07-14T21:25:05.649Z,21.10
2018-07-14T21:28:59.565Z,21.10
2018-07-14T21:32:53.584Z,21.10
2018-07-14T21:36:47.502Z,21.10
2018-07-14T21:40:41.477Z,21.10
2018-07-14T21:44:35.435Z,21.00
2018-07-14T21:48:29.365Z,20.80
2018-07-14T21:52:23.416Z,20.90
2018-07-14T21:56:16.828Z,20.80
2018-07-14T22:00:21.821Z,20.80
2018-07-14T22:04:15.804Z,20.70
2018-07-14T22:08:09.770Z,20.70
2018-07-14T22:12:03.750Z,20.60
2018-07-14T22:15:58.123Z,20.50
2018-07-14T22:19:52.066Z,20.70
2018-07-14T22:23:46.347Z,20.60
2018-07-14T22:27:40.414Z,20.50
2018-07-14T22:31:34.325Z,20.50
2018-07-14T22:35:28.420Z,20.40
2018-07-14T22:39:22.369Z,20.40
2018-07-14T22:43:16.304Z,20.50
2018-07-14T22:47:10.232Z,20.40
2018-07-14T22:51:04.191Z,20.40
2018-07-14T22:54:58.231Z,20.20
2018-07-14T22:58:52.321Z,20.20
2018-07-14T23:02:46.563Z,20.30
2018-07-14T23:06:40.573Z,20.20
2018-07-14T23:10:33.972Z,20.10
2018-07-14T23:14:28.044Z,20.10
2018-07-14T23:18:22.006Z,20.20
2018-07-14T23:22:16.043Z,20.10
2018-07-14T23:26:09.980Z,19.90
2018-07-14T23:30:03.983Z,19.90
2018-07-14T23:33:58.059Z,19.70
2018-07-14T23:37:52.605Z,19.60
2018-07-14T23:41:47.146Z,19.60
2018-07-14T23:45:41.029Z,19.50
2018-07-14T23:49:35.014Z,19.50
2018-07-14T23:53:29.891Z,19.50
2018-07-14T23:57:23.299Z,19.50
